CDT,Max TemperatureF,Mean TemperatureF,Min TemperatureF,Max Dew PointF,MeanDew PointF,Min DewpointF,Max Humidity, Mean Humidity, Min Humidity, Max Sea Level PressureIn, Mean Sea Level PressureIn, Min Sea Level PressureIn, Max VisibilityMiles, Mean VisibilityMiles, Min VisibilityMiles, Max Wind SpeedMPH, Mean Wind SpeedMPH, Max Gust SpeedMPH,PrecipitationIn, CloudCover, Events, WindDirDegrees
2011-10-1,60,46,32,39,36,30,100,71,36,30.39,30.32,30.24,10,10,2,10,6,,0.00,0,,9
2011-10-2,68,50,32,43,37,30,100,69,30,30.34,30.28,30.20,10,8,0,8,3,,0.00,0,,304
2011-10-3,77,57,37,48,42,37,100,67,29,30.28,30.23,30.20,10,10,2,9,3,,0.00,0,,5
2011-10-4,77,60,42,52,47,41,100,69,34,30.33,30.26,30.20,10,10,9,9,6,,0.00,0,,126
2011-10-5,80,61,42,52,47,43,100,65,32,30.27,30.22,30.16,10,10,10,13,7,16,0.00,0,,135
2011-10-6,80,63,46,54,48,45,93,72,34,30.26,30.22,30.18,10,10,8,16,7,26,0.00,0,,131
2011-10-7,,,,,,,,,,,,,,,,,,,,,,
2011-10-8,,,,,,,,,,,,,,,,,,,,,,
2011-10-9,,,,,,,,,,,,,,,,,,,,,,
2011-10-10,,,,,,,,,,,,,,,,,,,,,,
2011-10-11,,,,,,,,,,30.02,29.94,29.89,10,10,7,8,5,,0.01,4,,140
2011-10-12,,,,,,,,,,29.89,29.78,29.65,10,6,2,13,7,,0.62,6,Thunderstorm,93
2011-10-13,,,,,,,,,,29.65,29.61,29.57,10,9,3,22,7,30,0.00,5,,297
2011-10-14,,,,,,,,,,29.82,29.72,29.64,10,10,10,24,11,32,0.00,4,,285
2011-10-15,,,,,,,,,,29.96,29.90,29.83,10,10,10,21,12,31,0.00,0,,277
2011-10-16,,,,,,,,,,29.95,29.88,29.78,10,10,10,18,7,25,0.00,2,,307
2011-10-17,,,,,,,,,,29.97,29.92,29.88,10,10,10,15,9,24,0.00,0,,269
2011-10-18,,,,,,,,,,29.92,29.89,29.86,10,10,10,17,8,21,0.00,4,,331
2011-10-19,,,,,,,,,,29.89,29.85,29.78,10,10,10,22,14,30,0.00,6,,358
2011-10-20,,,,,,,,,,29.96,29.83,29.74,10,10,10,20,13,25,0.00,4,,323
2011-10-21,,,,,,,,,,30.13,30.08,29.97,10,10,3,13,7,20,0.00,0,,281
2011-10-22,,,,,,,,,,30.08,30.05,30.02,10,10,9,12,5,,0.00,0,,271
2011-10-23,,,,,,,,,,30.02,29.94,29.83,10,10,0,20,5,30,0.14,2,Thunderstorm,235
2011-10-24,,,,,,,,,,30.15,30.07,29.92,10,9,4,14,8,17,0.00,0,,244
2011-10-25,,,,,,,,,,30.05,29.85,29.71,10,10,9,17,10,24,0.01,4,Thunderstorm,163
2011-10-26,,,,,,,,,,30.04,29.97,29.80,10,10,10,17,11,22,0.00,7,,359
2011-10-27,,,,,,,,,,30.16,30.07,30.01,10,10,10,16,5,,0.00,4,,331
2011-10-28,,,,,,,,,,30.19,30.12,30.03,10,10,4,16,4,21,0.00,3,,236
2011-10-29,,,,,,,,,,30.13,30.09,30.05,10,10,6,13,6,17,0.00,0,,283
2011-10-30,,,,,,,,,,30.08,29.96,29.87,10,10,8,24,12,28,0.01,5,,196
2011-10-31,,,,,,,,,,30.12,30.06,29.98,10,10,10,13,5,21,0.00,4,,266